sensor_id;sensor_type;location;lat;lon;timestamp;P1;durP1;ratioP1;P2;durP2;ratioP2
7334;SDS011;3708;42.632;23.378;2023-08-08T00:01:35;1.93;;;1.73;;
7334;SDS011;3708;42.632;23.378;2023-08-08T00:04:02;2.37;;;1.60;;
7334;SDS011;3708;42.632;23.378;2023-08-08T00:06:29;1.90;;;1.70;;
7334;SDS011;3708;42.632;23.378;2023-08-08T00:08:59;2.10;;;1.90;;
7334;SDS011;3708;42.632;23.378;2023-08-08T00:11:26;3.27;;;2.27;;
7334;SDS011;3708;42.632;23.378;2023-08-08T00:13:54;3.87;;;2.80;;
7334;SDS011;3708;42.632;23.378;2023-08-08T00:16:24;4.17;;;2.73;;
7334;SDS011;3708;42.632;23.378;2023-08-08T00:18:51;2.93;;;2.47;;
7334;SDS011;3708;42.632;23.378;2023-08-08T00:21:18;2.07;;;1.80;;
7334;SDS011;3708;42.632;23.378;2023-08-08T00:23:45;1.90;;;1.70;;
7334;SDS011;3708;42.632;23.378;2023-08-08T00:26:14;2.00;;;1.60;;
7334;SDS011;3708;42.632;23.378;2023-08-08T00:28:41;1.67;;;1.50;;
7334;SDS011;3708;42.632;23.378;2023-08-08T00:31:08;1.30;;;1.20;;
7334;SDS011;3708;42.632;23.378;2023-08-08T00:33:35;2.23;;;1.60;;
7334;SDS011;3708;42.632;23.378;2023-08-08T00:36:02;1.57;;;1.40;;
7334;SDS011;3708;42.632;23.378;2023-08-08T00:38:31;1.53;;;1.43;;
7334;SDS011;3708;42.632;23.378;2023-08-08T00:41:02;1.40;;;1.30;;
7334;SDS011;3708;42.632;23.378;2023-08-08T00:43:31;2.17;;;1.73;;
7334;SDS011;3708;42.632;23.378;2023-08-08T00:45:58;1.47;;;1.30;;
7334;SDS011;3708;42.632;23.378;2023-08-08T00:48:25;1.80;;;1.50;;
7334;SDS011;3708;42.632;23.378;2023-08-08T00:50:52;1.70;;;1.60;;
7334;SDS011;3708;42.632;23.378;2023-08-08T00:53:19;1.63;;;1.47;;
7334;SDS011;3708;42.632;23.378;2023-08-08T00:55:47;2.53;;;1.33;;
7334;SDS011;3708;42.632;23.378;2023-08-08T00:58:14;3.27;;;1.40;;
7334;SDS011;3708;42.632;23.378;2023-08-08T01:00:45;1.60;;;1.50;;
7334;SDS011;3708;42.632;23.378;2023-08-08T01:03:12;1.90;;;1.37;;
7334;SDS011;3708;42.632;23.378;2023-08-08T01:05:41;1.50;;;1.40;;
7334;SDS011;3708;42.632;23.378;2023-08-08T01:08:15;3.40;;;1.70;;
7334;SDS011;3708;42.632;23.378;2023-08-08T01:10:45;1.40;;;1.30;;
7334;SDS011;3708;42.632;23.378;2023-08-08T01:13:12;3.03;;;1.80;;
7334;SDS011;3708;42.632;23.378;2023-08-08T01:15:46;1.60;;;1.43;;
7334;SDS011;3708;42.632;23.378;2023-08-08T01:18:14;3.53;;;1.50;;
7334;SDS011;3708;42.632;23.378;2023-08-08T01:20:44;1.63;;;1.53;;
7334;SDS011;3708;42.632;23.378;2023-08-08T01:23:13;1.40;;;1.30;;
7334;SDS011;3708;42.632;23.378;2023-08-08T01:25:44;1.67;;;1.57;;
7334;SDS011;3708;42.632;23.378;2023-08-08T01:28:14;1.97;;;1.50;;
7334;SDS011;3708;42.632;23.378;2023-08-08T01:30:41;3.23;;;1.73;;
7334;SDS011;3708;42.632;23.378;2023-08-08T01:33:10;1.60;;;1.50;;
7334;SDS011;3708;42.632;23.378;2023-08-08T01:35:38;1.50;;;1.40;;
7334;SDS011;3708;42.632;23.378;2023-08-08T01:38:08;1.83;;;1.50;;
7334;SDS011;3708;42.632;23.378;2023-08-08T01:40:40;1.40;;;1.30;;
7334;SDS011;3708;42.632;23.378;2023-08-08T01:43:11;1.77;;;1.63;;
7334;SDS011;3708;42.632;23.378;2023-08-08T01:45:39;1.70;;;1.60;;
7334;SDS011;3708;42.632;23.378;2023-08-08T01:48:06;3.23;;;1.77;;
7334;SDS011;3708;42.632;23.378;2023-08-08T01:50:34;2.97;;;1.97;;
7334;SDS011;3708;42.632;23.378;2023-08-08T01:53:01;1.90;;;1.60;;
7334;SDS011;3708;42.632;23.378;2023-08-08T01:55:28;1.90;;;1.70;;
7334;SDS011;3708;42.632;23.378;2023-08-08T01:57:55;2.10;;;1.90;;
7334;SDS011;3708;42.632;23.378;2023-08-08T02:00:23;3.40;;;1.40;;
7334;SDS011;3708;42.632;23.378;2023-08-08T02:02:50;6.53;;;1.83;;
7334;SDS011;3708;42.632;23.378;2023-08-08T02:05:18;2.37;;;1.70;;
7334;SDS011;3708;42.632;23.378;2023-08-08T02:07:45;2.03;;;1.80;;
7334;SDS011;3708;42.632;23.378;2023-08-08T02:10:12;4.93;;;2.13;;
7334;SDS011;3708;42.632;23.378;2023-08-08T02:12:38;2.33;;;1.70;;
7334;SDS011;3708;42.632;23.378;2023-08-08T02:15:06;2.33;;;1.87;;
7334;SDS011;3708;42.632;23.378;2023-08-08T02:17:37;2.63;;;1.70;;
7334;SDS011;3708;42.632;23.378;2023-08-08T02:20:04;2.17;;;1.80;;
7334;SDS011;3708;42.632;23.378;2023-08-08T02:22:32;2.00;;;1.70;;
7334;SDS011;3708;42.632;23.378;2023-08-08T02:24:59;2.43;;;2.00;;
7334;SDS011;3708;42.632;23.378;2023-08-08T02:27:26;2.13;;;1.83;;
7334;SDS011;3708;42.632;23.378;2023-08-08T02:29:53;2.10;;;1.73;;
7334;SDS011;3708;42.632;23.378;2023-08-08T02:32:22;3.30;;;2.07;;
7334;SDS011;3708;42.632;23.378;2023-08-08T02:34:50;1.93;;;1.73;;
7334;SDS011;3708;42.632;23.378;2023-08-08T02:37:17;2.13;;;1.93;;
7334;SDS011;3708;42.632;23.378;2023-08-08T02:39:44;2.60;;;2.20;;
7334;SDS011;3708;42.632;23.378;2023-08-08T02:42:11;1.80;;;1.70;;
7334;SDS011;3708;42.632;23.378;2023-08-08T02:44:39;2.80;;;2.03;;
7334;SDS011;3708;42.632;23.378;2023-08-08T02:47:09;2.07;;;1.83;;
7334;SDS011;3708;42.632;23.378;2023-08-08T02:49:36;2.50;;;2.30;;
7334;SDS011;3708;42.632;23.378;2023-08-08T02:52:05;2.20;;;2.00;;
7334;SDS011;3708;42.632;23.378;2023-08-08T02:54:32;2.27;;;1.90;;
7334;SDS011;3708;42.632;23.378;2023-08-08T02:56:59;2.30;;;2.10;;
7334;SDS011;3708;42.632;23.378;2023-08-08T02:59:25;3.17;;;2.10;;
7334;SDS011;3708;42.632;23.378;2023-08-08T03:01:52;2.77;;;2.00;;
7334;SDS011;3708;42.632;23.378;2023-08-08T03:04:19;2.50;;;2.30;;
7334;SDS011;3708;42.632;23.378;2023-08-08T03:06:46;2.47;;;2.10;;
7334;SDS011;3708;42.632;23.378;2023-08-08T03:09:14;3.07;;;2.40;;
7334;SDS011;3708;42.632;23.378;2023-08-08T03:11:41;2.77;;;2.13;;
7334;SDS011;3708;42.632;23.378;2023-08-08T03:14:08;3.53;;;2.00;;
7334;SDS011;3708;42.632;23.378;2023-08-08T03:16:35;2.33;;;2.13;;
7334;SDS011;3708;42.632;23.378;2023-08-08T03:19:02;2.53;;;2.30;;
7334;SDS011;3708;42.632;23.378;2023-08-08T03:21:29;3.13;;;2.57;;
7334;SDS011;3708;42.632;23.378;2023-08-08T03:23:56;2.30;;;2.10;;
7334;SDS011;3708;42.632;23.378;2023-08-08T03:26:24;4.47;;;2.40;;
7334;SDS011;3708;42.632;23.378;2023-08-08T03:28:52;2.73;;;2.30;;
7334;SDS011;3708;42.632;23.378;2023-08-08T03:31:19;2.77;;;2.57;;
7334;SDS011;3708;42.632;23.378;2023-08-08T03:33:46;2.70;;;2.50;;
7334;SDS011;3708;42.632;23.378;2023-08-08T03:36:13;4.03;;;2.60;;
7334;SDS011;3708;42.632;23.378;2023-08-08T03:38:40;2.93;;;2.30;;
7334;SDS011;3708;42.632;23.378;2023-08-08T03:41:09;2.53;;;2.33;;
7334;SDS011;3708;42.632;23.378;2023-08-08T03:43:38;2.77;;;2.57;;
7334;SDS011;3708;42.632;23.378;2023-08-08T03:46:05;3.80;;;2.60;;
7334;SDS011;3708;42.632;23.378;2023-08-08T03:48:32;3.13;;;2.60;;
7334;SDS011;3708;42.632;23.378;2023-08-08T03:50:59;4.00;;;2.97;;
7334;SDS011;3708;42.632;23.378;2023-08-08T03:53:27;2.90;;;2.60;;
7334;SDS011;3708;42.632;23.378;2023-08-08T03:55:54;3.23;;;2.97;;
7334;SDS011;3708;42.632;23.378;2023-08-08T03:58:21;3.17;;;2.80;;
7334;SDS011;3708;42.632;23.378;2023-08-08T04:00:49;3.07;;;2.73;;
7334;SDS011;3708;42.632;23.378;2023-08-08T04:03:20;3.60;;;3.30;;
7334;SDS011;3708;42.632;23.378;2023-08-08T04:05:49;2.97;;;2.60;;
7334;SDS011;3708;42.632;23.378;2023-08-08T04:08:17;3.67;;;3.37;;
7334;SDS011;3708;42.632;23.378;2023-08-08T04:10:46;3.37;;;2.90;;
7334;SDS011;3708;42.632;23.378;2023-08-08T04:13:13;3.27;;;2.97;;
7334;SDS011;3708;42.632;23.378;2023-08-08T04:15:41;4.03;;;2.97;;
7334;SDS011;3708;42.632;23.378;2023-08-08T04:18:09;4.43;;;2.70;;
7334;SDS011;3708;42.632;23.378;2023-08-08T04:20:36;3.23;;;3.03;;
7334;SDS011;3708;42.632;23.378;2023-08-08T04:23:04;4.13;;;3.47;;
7334;SDS011;3708;42.632;23.378;2023-08-08T04:25:31;2.87;;;2.60;;
7334;SDS011;3708;42.632;23.378;2023-08-08T04:27:58;3.13;;;2.83;;
7334;SDS011;3708;42.632;23.378;2023-08-08T04:30:25;3.90;;;2.70;;
7334;SDS011;3708;42.632;23.378;2023-08-08T04:32:53;2.53;;;2.33;;
7334;SDS011;3708;42.632;23.378;2023-08-08T04:35:21;3.57;;;2.80;;
7334;SDS011;3708;42.632;23.378;2023-08-08T04:37:48;5.13;;;3.10;;
7334;SDS011;3708;42.632;23.378;2023-08-08T04:40:17;2.90;;;2.60;;
7334;SDS011;3708;42.632;23.378;2023-08-08T04:42:51;3.03;;;2.73;;
7334;SDS011;3708;42.632;23.378;2023-08-08T04:45:18;4.73;;;3.00;;
7334;SDS011;3708;42.632;23.378;2023-08-08T04:47:55;2.87;;;2.67;;
7334;SDS011;3708;42.632;23.378;2023-08-08T04:50:24;3.23;;;2.93;;
7334;SDS011;3708;42.632;23.378;2023-08-08T04:53:02;3.10;;;2.60;;
7334;SDS011;3708;42.632;23.378;2023-08-08T04:55:30;4.03;;;3.07;;
7334;SDS011;3708;42.632;23.378;2023-08-08T04:57:58;3.30;;;3.00;;
7334;SDS011;3708;42.632;23.378;2023-08-08T05:00:28;3.80;;;2.47;;
7334;SDS011;3708;42.632;23.378;2023-08-08T05:03:16;3.43;;;3.00;;
7334;SDS011;3708;42.632;23.378;2023-08-08T05:05:45;3.87;;;2.60;;
7334;SDS011;3708;42.632;23.378;2023-08-08T05:08:34;4.23;;;2.83;;
7334;SDS011;3708;42.632;23.378;2023-08-08T05:11:13;4.87;;;3.10;;
7334;SDS011;3708;42.632;23.378;2023-08-08T05:13:40;4.17;;;2.97;;
7334;SDS011;3708;42.632;23.378;2023-08-08T05:16:09;3.90;;;3.10;;
7334;SDS011;3708;42.632;23.378;2023-08-08T05:18:36;8.27;;;2.90;;
7334;SDS011;3708;42.632;23.378;2023-08-08T05:21:07;3.37;;;3.07;;
7334;SDS011;3708;42.632;23.378;2023-08-08T05:23:35;4.23;;;2.90;;
7334;SDS011;3708;42.632;23.378;2023-08-08T05:26:02;2.90;;;2.70;;
7334;SDS011;3708;42.632;23.378;2023-08-08T05:28:29;4.03;;;3.43;;
7334;SDS011;3708;42.632;23.378;2023-08-08T05:30:56;3.27;;;3.00;;
7334;SDS011;3708;42.632;23.378;2023-08-08T05:33:24;3.53;;;2.87;;
7334;SDS011;3708;42.632;23.378;2023-08-08T05:35:52;4.50;;;2.60;;
7334;SDS011;3708;42.632;23.378;2023-08-08T05:38:20;3.70;;;3.00;;
7334;SDS011;3708;42.632;23.378;2023-08-08T05:40:47;4.70;;;3.07;;
7334;SDS011;3708;42.632;23.378;2023-08-08T05:43:14;3.47;;;2.77;;
7334;SDS011;3708;42.632;23.378;2023-08-08T05:45:47;3.00;;;2.80;;
7334;SDS011;3708;42.632;23.378;2023-08-08T05:48:14;3.13;;;2.83;;
7334;SDS011;3708;42.632;23.378;2023-08-08T05:50:41;4.87;;;2.70;;
7334;SDS011;3708;42.632;23.378;2023-08-08T05:53:08;2.93;;;2.67;;
7334;SDS011;3708;42.632;23.378;2023-08-08T05:55:37;4.40;;;3.17;;
7334;SDS011;3708;42.632;23.378;2023-08-08T05:58:08;5.00;;;2.63;;
7334;SDS011;3708;42.632;23.378;2023-08-08T06:00:35;2.60;;;2.40;;
7334;SDS011;3708;42.632;23.378;2023-08-08T06:03:02;2.53;;;2.33;;
7334;SDS011;3708;42.632;23.378;2023-08-08T06:05:29;3.23;;;2.50;;
7334;SDS011;3708;42.632;23.378;2023-08-08T06:07:57;3.63;;;2.83;;
7334;SDS011;3708;42.632;23.378;2023-08-08T06:10:25;7.90;;;3.60;;
7334;SDS011;3708;42.632;23.378;2023-08-08T06:12:54;4.07;;;3.20;;
7334;SDS011;3708;42.632;23.378;2023-08-08T06:15:21;3.60;;;3.30;;
7334;SDS011;3708;42.632;23.378;2023-08-08T06:17:48;4.57;;;3.97;;
7334;SDS011;3708;42.632;23.378;2023-08-08T06:20:16;4.60;;;4.03;;
7334;SDS011;3708;42.632;23.378;2023-08-08T06:22:43;5.93;;;4.10;;
7334;SDS011;3708;42.632;23.378;2023-08-08T06:25:12;6.23;;;3.70;;
7334;SDS011;3708;42.632;23.378;2023-08-08T06:27:39;3.13;;;2.93;;
7334;SDS011;3708;42.632;23.378;2023-08-08T06:30:11;2.90;;;2.70;;
7334;SDS011;3708;42.632;23.378;2023-08-08T06:32:39;2.90;;;2.70;;
7334;SDS011;3708;42.632;23.378;2023-08-08T06:35:06;3.57;;;3.27;;
7334;SDS011;3708;42.632;23.378;2023-08-08T06:37:33;3.20;;;2.90;;
7334;SDS011;3708;42.632;23.378;2023-08-08T06:40:01;7.87;;;2.60;;
7334;SDS011;3708;42.632;23.378;2023-08-08T06:42:30;2.83;;;2.60;;
7334;SDS011;3708;42.632;23.378;2023-08-08T06:44:57;2.40;;;2.20;;
7334;SDS011;3708;42.632;23.378;2023-08-08T06:47:25;3.03;;;2.73;;
7334;SDS011;3708;42.632;23.378;2023-08-08T06:49:52;2.83;;;2.43;;
7334;SDS011;3708;42.632;23.378;2023-08-08T06:52:20;19.37;;;2.30;;
7334;SDS011;3708;42.632;23.378;2023-08-08T06:54:48;3.00;;;2.53;;
7334;SDS011;3708;42.632;23.378;2023-08-08T06:57:15;2.40;;;2.20;;
7334;SDS011;3708;42.632;23.378;2023-08-08T06:59:41;4.13;;;2.37;;
7334;SDS011;3708;42.632;23.378;2023-08-08T07:02:09;2.70;;;2.40;;
7334;SDS011;3708;42.632;23.378;2023-08-08T07:04:38;4.03;;;2.03;;
7334;SDS011;3708;42.632;23.378;2023-08-08T07:07:05;2.40;;;2.20;;
7334;SDS011;3708;42.632;23.378;2023-08-08T07:09:32;2.23;;;2.03;;
7334;SDS011;3708;42.632;23.378;2023-08-08T07:11:59;2.20;;;2.00;;
7334;SDS011;3708;42.632;23.378;2023-08-08T07:14:26;6.37;;;1.70;;
7334;SDS011;3708;42.632;23.378;2023-08-08T07:16:53;2.03;;;1.90;;
7334;SDS011;3708;42.632;23.378;2023-08-08T07:19:21;4.40;;;1.90;;
7334;SDS011;3708;42.632;23.378;2023-08-08T07:21:49;2.10;;;1.77;;
7334;SDS011;3708;42.632;23.378;2023-08-08T07:24:16;2.70;;;1.87;;
7334;SDS011;3708;42.632;23.378;2023-08-08T07:26:45;2.83;;;2.07;;
7334;SDS011;3708;42.632;23.378;2023-08-08T07:29:12;1.90;;;1.80;;
7334;SDS011;3708;42.632;23.378;2023-08-08T07:31:40;2.30;;;2.10;;
7334;SDS011;3708;42.632;23.378;2023-08-08T07:34:07;1.97;;;1.83;;
7334;SDS011;3708;42.632;23.378;2023-08-08T07:36:34;2.10;;;1.90;;
7334;SDS011;3708;42.632;23.378;2023-08-08T07:39:03;1.63;;;1.50;;
7334;SDS011;3708;42.632;23.378;2023-08-08T07:41:30;2.40;;;2.20;;
7334;SDS011;3708;42.632;23.378;2023-08-08T07:43:58;1.63;;;1.53;;
7334;SDS011;3708;42.632;23.378;2023-08-08T07:46:25;1.40;;;1.30;;
7334;SDS011;3708;42.632;23.378;2023-08-08T07:48:52;1.90;;;1.50;;
7334;SDS011;3708;42.632;23.378;2023-08-08T07:51:19;1.77;;;1.40;;
7334;SDS011;3708;42.632;23.378;2023-08-08T07:53:46;6.40;;;1.63;;
7334;SDS011;3708;42.632;23.378;2023-08-08T07:56:14;2.27;;;1.80;;
7334;SDS011;3708;42.632;23.378;2023-08-08T07:58:41;3.83;;;1.50;;
7334;SDS011;3708;42.632;23.378;2023-08-08T08:01:08;1.40;;;1.30;;
7334;SDS011;3708;42.632;23.378;2023-08-08T08:03:36;1.40;;;1.30;;
7334;SDS011;3708;42.632;23.378;2023-08-08T08:06:04;1.40;;;1.30;;
7334;SDS011;3708;42.632;23.378;2023-08-08T08:08:31;1.43;;;1.33;;
7334;SDS011;3708;42.632;23.378;2023-08-08T08:10:58;1.87;;;1.60;;
7334;SDS011;3708;42.632;23.378;2023-08-08T08:13:29;1.90;;;1.70;;
7334;SDS011;3708;42.632;23.378;2023-08-08T08:15:58;1.90;;;1.80;;
7334;SDS011;3708;42.632;23.378;2023-08-08T08:18:25;6.77;;;1.60;;
7334;SDS011;3708;42.632;23.378;2023-08-08T08:20:54;1.60;;;1.50;;
7334;SDS011;3708;42.632;23.378;2023-08-08T08:23:21;1.70;;;1.40;;
7334;SDS011;3708;42.632;23.378;2023-08-08T08:25:48;1.87;;;1.50;;
7334;SDS011;3708;42.632;23.378;2023-08-08T08:28:15;1.60;;;1.50;;
7334;SDS011;3708;42.632;23.378;2023-08-08T08:30:44;1.63;;;1.43;;
7334;SDS011;3708;42.632;23.378;2023-08-08T08:33:11;1.90;;;1.70;;
7334;SDS011;3708;42.632;23.378;2023-08-08T08:35:37;2.93;;;1.87;;
7334;SDS011;3708;42.632;23.378;2023-08-08T08:38:04;3.17;;;1.70;;
7334;SDS011;3708;42.632;23.378;2023-08-08T08:40:34;1.70;;;1.60;;
7334;SDS011;3708;42.632;23.378;2023-08-08T08:43:04;1.60;;;1.50;;
7334;SDS011;3708;42.632;23.378;2023-08-08T08:45:33;1.80;;;1.50;;
7334;SDS011;3708;42.632;23.378;2023-08-08T08:48:05;2.10;;;1.60;;
7334;SDS011;3708;42.632;23.378;2023-08-08T08:50:35;3.17;;;2.10;;
7334;SDS011;3708;42.632;23.378;2023-08-08T08:53:04;3.00;;;2.00;;
7334;SDS011;3708;42.632;23.378;2023-08-08T08:55:31;1.80;;;1.70;;
7334;SDS011;3708;42.632;23.378;2023-08-08T08:57:59;2.17;;;1.90;;
7334;SDS011;3708;42.632;23.378;2023-08-08T09:00:26;2.17;;;1.90;;
7334;SDS011;3708;42.632;23.378;2023-08-08T09:02:54;3.10;;;1.50;;
7334;SDS011;3708;42.632;23.378;2023-08-08T09:05:23;3.50;;;2.03;;
7334;SDS011;3708;42.632;23.378;2023-08-08T09:07:52;2.33;;;1.90;;
7334;SDS011;3708;42.632;23.378;2023-08-08T09:10:19;3.73;;;2.30;;
7334;SDS011;3708;42.632;23.378;2023-08-08T09:12:47;2.03;;;1.83;;
7334;SDS011;3708;42.632;23.378;2023-08-08T09:15:14;2.27;;;2.07;;
7334;SDS011;3708;42.632;23.378;2023-08-08T09:17:41;2.00;;;1.80;;
7334;SDS011;3708;42.632;23.378;2023-08-08T09:20:11;1.73;;;1.63;;
7334;SDS011;3708;42.632;23.378;2023-08-08T09:22:40;4.70;;;1.90;;
7334;SDS011;3708;42.632;23.378;2023-08-08T09:25:07;4.83;;;1.70;;
7334;SDS011;3708;42.632;23.378;2023-08-08T09:27:34;2.77;;;2.10;;
7334;SDS011;3708;42.632;23.378;2023-08-08T09:30:05;1.90;;;1.77;;
7334;SDS011;3708;42.632;23.378;2023-08-08T09:32:34;2.23;;;1.60;;
7334;SDS011;3708;42.632;23.378;2023-08-08T09:35:01;1.63;;;1.53;;
7334;SDS011;3708;42.632;23.378;2023-08-08T09:37:28;3.53;;;1.40;;
7334;SDS011;3708;42.632;23.378;2023-08-08T09:39:57;3.47;;;1.80;;
7334;SDS011;3708;42.632;23.378;2023-08-08T09:42:25;1.87;;;1.70;;
7334;SDS011;3708;42.632;23.378;2023-08-08T09:44:53;1.70;;;1.53;;
7334;SDS011;3708;42.632;23.378;2023-08-08T09:47:20;1.70;;;1.60;;
7334;SDS011;3708;42.632;23.378;2023-08-08T09:49:48;2.50;;;1.60;;
7334;SDS011;3708;42.632;23.378;2023-08-08T09:52:15;1.77;;;1.67;;
7334;SDS011;3708;42.632;23.378;2023-08-08T09:54:43;1.70;;;1.60;;
7334;SDS011;3708;42.632;23.378;2023-08-08T09:57:12;2.07;;;1.90;;
7334;SDS011;3708;42.632;23.378;2023-08-08T09:59:39;2.97;;;1.53;;
7334;SDS011;3708;42.632;23.378;2023-08-08T10:02:08;3.27;;;1.50;;
7334;SDS011;3708;42.632;23.378;2023-08-08T10:04:40;1.70;;;1.60;;
7334;SDS011;3708;42.632;23.378;2023-08-08T10:07:08;1.80;;;1.70;;
7334;SDS011;3708;42.632;23.378;2023-08-08T10:09:35;2.43;;;1.70;;
7334;SDS011;3708;42.632;23.378;2023-08-08T10:12:03;1.60;;;1.50;;
7334;SDS011;3708;42.632;23.378;2023-08-08T10:14:37;1.70;;;1.60;;
7334;SDS011;3708;42.632;23.378;2023-08-08T10:17:07;1.67;;;1.57;;
7334;SDS011;3708;42.632;23.378;2023-08-08T10:19:34;2.10;;;1.80;;
7334;SDS011;3708;42.632;23.378;2023-08-08T10:22:03;1.80;;;1.70;;
7334;SDS011;3708;42.632;23.378;2023-08-08T10:24:32;2.00;;;1.60;;
7334;SDS011;3708;42.632;23.378;2023-08-08T10:27:01;2.83;;;1.83;;
7334;SDS011;3708;42.632;23.378;2023-08-08T10:29:30;1.70;;;1.60;;
7334;SDS011;3708;42.632;23.378;2023-08-08T10:32:01;3.27;;;1.60;;
7334;SDS011;3708;42.632;23.378;2023-08-08T10:34:36;2.00;;;1.80;;
7334;SDS011;3708;42.632;23.378;2023-08-08T10:37:04;2.00;;;1.80;;
7334;SDS011;3708;42.632;23.378;2023-08-08T10:39:35;3.50;;;1.90;;
7334;SDS011;3708;42.632;23.378;2023-08-08T10:42:03;1.90;;;1.80;;
7334;SDS011;3708;42.632;23.378;2023-08-08T10:44:30;3.20;;;1.70;;
7334;SDS011;3708;42.632;23.378;2023-08-08T10:47:02;2.20;;;2.00;;
7334;SDS011;3708;42.632;23.378;2023-08-08T10:49:29;1.70;;;1.53;;
7334;SDS011;3708;42.632;23.378;2023-08-08T10:52:01;1.70;;;1.60;;
7334;SDS011;3708;42.632;23.378;2023-08-08T10:54:29;2.27;;;1.60;;
7334;SDS011;3708;42.632;23.378;2023-08-08T10:56:58;2.00;;;1.70;;
7334;SDS011;3708;42.632;23.378;2023-08-08T10:59:35;3.40;;;1.70;;
7334;SDS011;3708;42.632;23.378;2023-08-08T11:02:05;1.70;;;1.57;;
7334;SDS011;3708;42.632;23.378;2023-08-08T11:04:32;1.80;;;1.70;;
7334;SDS011;3708;42.632;23.378;2023-08-08T11:07:00;2.23;;;1.77;;
7334;SDS011;3708;42.632;23.378;2023-08-08T11:09:27;1.97;;;1.80;;
7334;SDS011;3708;42.632;23.378;2023-08-08T11:11:55;1.50;;;1.40;;
7334;SDS011;3708;42.632;23.378;2023-08-08T11:14:22;1.97;;;1.63;;
7334;SDS011;3708;42.632;23.378;2023-08-08T11:16:49;1.70;;;1.60;;
7334;SDS011;3708;42.632;23.378;2023-08-08T11:19:19;1.50;;;1.40;;
7334;SDS011;3708;42.632;23.378;2023-08-08T11:21:48;2.23;;;1.60;;
7334;SDS011;3708;42.632;23.378;2023-08-08T11:24:15;1.50;;;1.40;;
7334;SDS011;3708;42.632;23.378;2023-08-08T11:26:44;3.13;;;1.43;;
7334;SDS011;3708;42.632;23.378;2023-08-08T11:29:12;1.63;;;1.53;;
7334;SDS011;3708;42.632;23.378;2023-08-08T11:31:41;1.70;;;1.60;;
7334;SDS011;3708;42.632;23.378;2023-08-08T11:34:08;1.63;;;1.50;;
7334;SDS011;3708;42.632;23.378;2023-08-08T11:36:38;1.57;;;1.30;;
7334;SDS011;3708;42.632;23.378;2023-08-08T11:39:06;1.50;;;1.40;;
7334;SDS011;3708;42.632;23.378;2023-08-08T11:41:35;1.92;;;1.50;;
7334;SDS011;3708;42.632;23.378;2023-08-08T11:44:02;1.73;;;1.43;;
7334;SDS011;3708;42.632;23.378;2023-08-08T11:46:30;3.40;;;1.63;;
7334;SDS011;3708;42.632;23.378;2023-08-08T11:49:02;1.40;;;1.30;;
7334;SDS011;3708;42.632;23.378;2023-08-08T11:51:31;1.77;;;1.50;;
7334;SDS011;3708;42.632;23.378;2023-08-08T11:54:01;1.60;;;1.50;;
7334;SDS011;3708;42.632;23.378;2023-08-08T11:56:29;3.43;;;1.33;;
7334;SDS011;3708;42.632;23.378;2023-08-08T11:58:59;5.70;;;1.60;;
7334;SDS011;3708;42.632;23.378;2023-08-08T12:01:27;2.78;;;1.83;;
7334;SDS011;3708;42.632;23.378;2023-08-08T12:03:55;1.80;;;1.60;;
7334;SDS011;3708;42.632;23.378;2023-08-08T12:06:27;1.88;;;1.73;;
7334;SDS011;3708;42.632;23.378;2023-08-08T12:08:55;2.10;;;1.30;;
7334;SDS011;3708;42.632;23.378;2023-08-08T12:11:23;2.25;;;1.55;;
7334;SDS011;3708;42.632;23.378;2023-08-08T12:13:50;1.70;;;1.60;;
7334;SDS011;3708;42.632;23.378;2023-08-08T12:16:17;1.30;;;1.20;;
7334;SDS011;3708;42.632;23.378;2023-08-08T12:18:45;1.90;;;1.52;;
7334;SDS011;3708;42.632;23.378;2023-08-08T12:21:15;4.28;;;1.77;;
7334;SDS011;3708;42.632;23.378;2023-08-08T12:23:42;1.65;;;1.50;;
7334;SDS011;3708;42.632;23.378;2023-08-08T12:26:09;1.75;;;1.60;;
7334;SDS011;3708;42.632;23.378;2023-08-08T12:28:38;2.70;;;1.60;;
7334;SDS011;3708;42.632;23.378;2023-08-08T12:31:04;1.98;;;1.50;;
7334;SDS011;3708;42.632;23.378;2023-08-08T12:33:32;2.13;;;1.60;;
7334;SDS011;3708;42.632;23.378;2023-08-08T12:35:58;2.33;;;1.83;;
7334;SDS011;3708;42.632;23.378;2023-08-08T12:38:25;2.10;;;1.83;;
7334;SDS011;3708;42.632;23.378;2023-08-08T12:40:52;1.38;;;1.27;;
7334;SDS011;3708;42.632;23.378;2023-08-08T12:43:19;1.70;;;1.60;;
7334;SDS011;3708;42.632;23.378;2023-08-08T12:45:47;2.67;;;1.30;;
7334;SDS011;3708;42.632;23.378;2023-08-08T12:48:14;1.65;;;1.42;;
7334;SDS011;3708;42.632;23.378;2023-08-08T12:50:41;2.88;;;1.50;;
7334;SDS011;3708;42.632;23.378;2023-08-08T12:53:07;1.98;;;1.42;;
7334;SDS011;3708;42.632;23.378;2023-08-08T12:55:35;2.20;;;1.50;;
7334;SDS011;3708;42.632;23.378;2023-08-08T12:58:04;1.73;;;1.38;;
7334;SDS011;3708;42.632;23.378;2023-08-08T13:00:31;1.40;;;1.30;;
7334;SDS011;3708;42.632;23.378;2023-08-08T13:02:59;1.88;;;1.55;;
7334;SDS011;3708;42.632;23.378;2023-08-08T13:05:26;4.43;;;1.52;;
7334;SDS011;3708;42.632;23.378;2023-08-08T13:07:53;1.48;;;1.23;;
7334;SDS011;3708;42.632;23.378;2023-08-08T13:10:20;1.40;;;1.30;;
7334;SDS011;3708;42.632;23.378;2023-08-08T13:12:47;1.50;;;1.40;;
7334;SDS011;3708;42.632;23.378;2023-08-08T13:15:14;1.63;;;1.52;;
7334;SDS011;3708;42.632;23.378;2023-08-08T13:17:41;2.75;;;1.50;;
7334;SDS011;3708;42.632;23.378;2023-08-08T13:20:10;1.55;;;1.42;;
7334;SDS011;3708;42.632;23.378;2023-08-08T13:22:38;1.60;;;1.30;;
7334;SDS011;3708;42.632;23.378;2023-08-08T13:25:07;2.00;;;1.50;;
7334;SDS011;3708;42.632;23.378;2023-08-08T13:27:35;3.88;;;1.50;;
7334;SDS011;3708;42.632;23.378;2023-08-08T13:30:02;1.55;;;1.40;;
7334;SDS011;3708;42.632;23.378;2023-08-08T13:32:30;1.50;;;1.40;;
7334;SDS011;3708;42.632;23.378;2023-08-08T13:34:56;1.83;;;1.70;;
7334;SDS011;3708;42.632;23.378;2023-08-08T13:37:25;2.22;;;1.77;;
7334;SDS011;3708;42.632;23.378;2023-08-08T13:39:52;1.77;;;1.30;;
7334;SDS011;3708;42.632;23.378;2023-08-08T13:42:18;1.30;;;1.20;;
7334;SDS011;3708;42.632;23.378;2023-08-08T13:44:45;1.63;;;1.35;;
7334;SDS011;3708;42.632;23.378;2023-08-08T13:47:12;2.35;;;1.33;;
7334;SDS011;3708;42.632;23.378;2023-08-08T13:49:39;3.50;;;1.52;;
7334;SDS011;3708;42.632;23.378;2023-08-08T13:52:06;1.25;;;1.15;;
7334;SDS011;3708;42.632;23.378;2023-08-08T13:54:34;1.40;;;1.30;;
7334;SDS011;3708;42.632;23.378;2023-08-08T13:57:01;2.45;;;1.35;;
7334;SDS011;3708;42.632;23.378;2023-08-08T13:59:28;1.50;;;1.40;;
7334;SDS011;3708;42.632;23.378;2023-08-08T14:01:55;2.38;;;1.58;;
7334;SDS011;3708;42.632;23.378;2023-08-08T14:04:21;1.85;;;1.67;;
7334;SDS011;3708;42.632;23.378;2023-08-08T14:06:48;1.38;;;1.27;;
7334;SDS011;3708;42.632;23.378;2023-08-08T14:09:15;1.85;;;1.42;;
7334;SDS011;3708;42.632;23.378;2023-08-08T14:11:44;4.30;;;1.35;;
7334;SDS011;3708;42.632;23.378;2023-08-08T14:14:10;2.15;;;1.48;;
7334;SDS011;3708;42.632;23.378;2023-08-08T14:16:37;2.75;;;1.50;;
7334;SDS011;3708;42.632;23.378;2023-08-08T14:19:04;3.72;;;1.40;;
7334;SDS011;3708;42.632;23.378;2023-08-08T14:21:31;1.52;;;1.40;;
7334;SDS011;3708;42.632;23.378;2023-08-08T14:23:58;1.35;;;1.25;;
7334;SDS011;3708;42.632;23.378;2023-08-08T14:26:25;1.55;;;1.30;;
7334;SDS011;3708;42.632;23.378;2023-08-08T14:28:53;3.92;;;1.38;;
7334;SDS011;3708;42.632;23.378;2023-08-08T14:31:20;1.42;;;1.33;;
7334;SDS011;3708;42.632;23.378;2023-08-08T14:33:47;1.52;;;1.30;;
7334;SDS011;3708;42.632;23.378;2023-08-08T14:36:14;1.63;;;1.52;;
7334;SDS011;3708;42.632;23.378;2023-08-08T14:38:41;1.45;;;1.30;;
7334;SDS011;3708;42.632;23.378;2023-08-08T14:41:08;4.97;;;1.38;;
7334;SDS011;3708;42.632;23.378;2023-08-08T14:43:35;1.38;;;1.20;;
7334;SDS011;3708;42.632;23.378;2023-08-08T14:46:03;3.47;;;1.30;;
7334;SDS011;3708;42.632;23.378;2023-08-08T14:48:30;1.30;;;1.20;;
7334;SDS011;3708;42.632;23.378;2023-08-08T14:50:59;3.38;;;1.45;;
7334;SDS011;3708;42.632;23.378;2023-08-08T14:53:28;3.03;;;1.27;;
7334;SDS011;3708;42.632;23.378;2023-08-08T14:59:12;1.40;;;1.20;;
7334;SDS011;3708;42.632;23.378;2023-08-08T15:01:47;2.28;;;1.65;;
7334;SDS011;3708;42.632;23.378;2023-08-08T15:04:26;1.30;;;1.20;;
7334;SDS011;3708;42.632;23.378;2023-08-08T15:06:54;1.55;;;1.45;;
7334;SDS011;3708;42.632;23.378;2023-08-08T15:09:39;1.42;;;1.30;;